Terminal Aerodrome Forecast
Issued by NWS

Home | Current Version | Previous Version | Text Only | Print | Product List | Glossary On
Versions: 1 2 3 4 5 6 7 8 9 10 11 12 13 14 15 16 17 18
000
FTAK31 PAJN 011724
TAFAKT
TAF
PAKT 011724Z 0118/0218 VRB05KT P6SM -SHRA SCT040 OVC060
     FM012000 34008KT P6SM VCSH SCT060 BKN080
     FM020300 32005KT P6SM SCT100=

USA.gov is the U.S. government's official web portal to all federal, state and local government web resources and services.